createdAt,value
2023-03-15T00:02:30.564Z,97681.27
2023-03-15T00:06:28.517Z,97686.10
2023-03-15T00:10:26.439Z,97689.34
2023-03-15T00:14:25.449Z,97692.36
2023-03-15T00:18:23.577Z,97698.61
2023-03-15T00:22:21.560Z,97707.95
2023-03-15T00:26:19.368Z,97710.24
2023-03-15T00:30:17.523Z,97714.27
2023-03-15T00:34:15.388Z,97717.51
2023-03-15T00:38:13.407Z,97719.64
2023-03-15T00:42:11.466Z,97723.28
2023-03-15T00:46:09.524Z,97727.15
2023-03-15T00:50:07.325Z,97732.11
2023-03-15T00:54:08.466Z,97739.69
2023-03-15T00:58:06.441Z,97741.92
2023-03-15T01:02:04.469Z,97741.63
2023-03-15T01:06:02.396Z,97748.41
2023-03-15T01:10:00.374Z,97751.56
2023-03-15T01:13:58.373Z,97758.39
2023-03-15T01:17:57.356Z,97769.42
2023-03-15T01:21:55.339Z,97777.29
2023-03-15T01:25:53.425Z,97776.92
2023-03-15T01:29:51.389Z,97783.29
2023-03-15T01:33:49.350Z,97780.79
2023-03-15T01:37:47.356Z,97778.89
2023-03-15T01:41:45.432Z,97783.36
2023-03-15T01:46:05.316Z,97789.76
2023-03-15T01:50:25.392Z,97808.49
2023-03-15T01:54:38.284Z,97811.71
2023-03-15T01:58:40.305Z,97810.02
2023-03-15T02:02:40.326Z,97809.22
2023-03-15T02:06:42.302Z,97811.27
2023-03-15T02:10:52.284Z,97819.10
2023-03-15T02:14:50.362Z,97823.83
2023-03-15T02:18:49.379Z,97822.77
2023-03-15T02:23:06.297Z,97829.76
2023-03-15T02:27:09.272Z,97840.73
2023-03-15T02:31:07.297Z,97852.52
2023-03-15T02:35:05.229Z,97857.79
2023-03-15T02:39:04.326Z,97859.32
2023-03-15T02:43:10.213Z,97866.23
2023-03-15T02:47:12.287Z,97867.00
2023-03-15T02:51:11.289Z,97868.48
2023-03-15T02:55:09.474Z,97880.26
2023-03-15T02:59:07.354Z,97882.63
2023-03-15T03:03:05.334Z,97896.20
2023-03-15T03:07:03.214Z,97931.64
2023-03-15T03:11:08.256Z,97953.71
2023-03-15T03:15:06.249Z,97976.41
2023-03-15T03:19:04.393Z,97991.30
2023-03-15T03:23:02.190Z,97992.31
2023-03-15T03:27:04.216Z,98004.15
2023-03-15T03:31:02.382Z,98008.91
2023-03-15T03:35:00.326Z,98010.03
2023-03-15T03:39:00.199Z,98036.94
2023-03-15T03:42:58.325Z,98049.34
2023-03-15T03:46:56.125Z,98060.13
2023-03-15T03:50:54.397Z,98063.38
2023-03-15T03:54:52.216Z,98076.63
2023-03-15T03:58:50.242Z,98093.64
2023-03-15T04:02:53.223Z,98104.23
2023-03-15T04:06:53.260Z,98112.97
2023-03-15T04:10:56.287Z,98128.84
2023-03-15T04:14:55.162Z,98143.37
2023-03-15T04:18:56.215Z,98158.92
2023-03-15T04:22:57.175Z,98172.14
2023-03-15T04:27:15.212Z,98175.58
2023-03-15T04:31:26.241Z,98177.09
2023-03-15T04:35:44.136Z,98188.83
2023-03-15T04:40:00.247Z,98200.19
2023-03-15T04:44:34.076Z,98210.48
2023-03-15T04:48:50.273Z,98231.33
2023-03-15T04:53:05.075Z,98237.28
2023-03-15T04:57:22.092Z,98239.95
2023-03-15T05:01:28.147Z,98243.39
2023-03-15T05:05:56.329Z,98258.30
2023-03-15T05:10:12.057Z,98257.36
2023-03-15T05:14:28.234Z,98267.71
2023-03-15T05:18:26.040Z,98284.34
2023-03-15T05:22:37.067Z,98287.13
2023-03-15T05:26:35.038Z,98293.84
2023-03-15T05:30:45.102Z,98307.17
2023-03-15T05:34:59.186Z,98309.58
2023-03-15T05:39:06.072Z,98311.71
2023-03-15T05:43:20.035Z,98315.61
2023-03-15T05:47:36.029Z,98315.92
2023-03-15T05:51:40.973Z,98328.20
2023-03-15T05:55:47.991Z,98339.21
2023-03-15T06:00:04.982Z,98343.98
2023-03-15T06:04:06.056Z,98346.44
2023-03-15T06:08:04.017Z,98368.30
2023-03-15T06:12:04.100Z,98376.80
2023-03-15T06:16:02.918Z,98386.05
2023-03-15T06:20:07.201Z,98399.80
2023-03-15T06:24:05.009Z,98411.48
2023-03-15T06:28:02.968Z,98426.16
2023-03-15T06:32:02.945Z,98439.60
2023-03-15T06:36:01.963Z,98449.56
2023-03-15T06:40:01.000Z,98457.67
2023-03-15T06:43:58.923Z,98474.40
2023-03-15T06:47:56.926Z,98485.95
2023-03-15T06:51:56.017Z,98497.02
2023-03-15T06:55:54.089Z,98506.08
2023-03-15T06:59:40.581Z,98515.77
2023-03-15T07:03:04.545Z,98519.11
2023-03-15T07:06:29.705Z,98517.38
2023-03-15T07:09:55.246Z,98521.84
2023-03-15T07:13:20.748Z,98522.98
2023-03-15T07:16:44.845Z,98535.96
2023-03-15T07:20:09.369Z,98552.63
2023-03-15T07:23:33.753Z,98559.34
2023-03-15T07:26:57.898Z,98570.95
2023-03-15T07:30:22.897Z,98574.44
2023-03-15T07:33:46.757Z,98570.51
2023-03-15T07:37:10.986Z,98578.88
2023-03-15T07:40:35.759Z,98575.05
2023-03-15T07:44:00.466Z,98577.70
2023-03-15T07:47:24.501Z,98575.73
2023-03-15T07:50:48.662Z,98581.41
2023-03-15T07:54:12.646Z,98588.98
2023-03-15T07:57:38.124Z,98588.96
2023-03-15T08:01:03.130Z,98593.66
2023-03-15T08:04:28.244Z,98598.85
2023-03-15T08:07:52.282Z,98604.77
2023-03-15T08:11:16.351Z,98605.25
2023-03-15T08:14:40.463Z,98612.55
2023-03-15T08:18:05.959Z,98617.02
2023-03-15T08:21:33.882Z,98612.98
2023-03-15T08:24:57.794Z,98610.04
2023-03-15T08:28:22.058Z,98615.98
2023-03-15T08:31:45.963Z,98617.32
2023-03-15T08:35:15.188Z,98616.77
2023-03-15T08:38:39.898Z,98623.99
2023-03-15T08:42:03.810Z,98619.23
2023-03-15T08:45:28.317Z,98619.30
2023-03-15T08:48:53.179Z,98620.34
2023-03-15T08:52:18.287Z,98618.53
2023-03-15T08:55:42.601Z,98630.55
2023-03-15T08:59:06.522Z,98631.10
2023-03-15T09:02:30.622Z,98636.38
2023-03-15T09:06:01.487Z,98644.63
2023-03-15T09:09:26.517Z,98643.02
2023-03-15T09:12:54.073Z,98653.14
2023-03-15T09:16:19.824Z,98654.65
2023-03-15T09:19:45.081Z,98668.05
2023-03-15T09:23:10.923Z,98675.36
2023-03-15T09:26:34.853Z,98681.73
2023-03-15T09:29:58.831Z,98682.37
2023-03-15T09:33:23.554Z,98686.45
2023-03-15T09:36:53.159Z,98690.60
2023-03-15T09:40:25.109Z,98696.08
2023-03-15T09:44:40.574Z,98696.85
2023-03-15T09:48:14.882Z,98706.95
2023-03-15T09:51:58.445Z,98715.83
2023-03-15T09:55:28.118Z,98717.20
2023-03-15T09:58:59.134Z,98721.27
2023-03-15T10:02:29.243Z,98726.67
2023-03-15T10:06:16.264Z,98730.18
2023-03-15T10:09:40.134Z,98736.44
2023-03-15T10:13:37.531Z,98736.95
2023-03-15T10:17:08.545Z,98739.19
2023-03-15T10:20:35.831Z,98736.63
2023-03-15T10:24:01.700Z,98738.12
2023-03-15T10:27:48.961Z,98741.70
2023-03-15T10:31:25.682Z,98740.23
2023-03-15T10:34:56.786Z,98739.25
2023-03-15T10:38:23.304Z,98736.98
2023-03-15T10:41:52.321Z,98737.30
2023-03-15T10:45:28.415Z,98732.73
2023-03-15T10:49:09.345Z,98739.34
2023-03-15T10:52:35.709Z,98742.19
2023-03-15T10:56:08.151Z,98733.41
2023-03-15T10:59:35.697Z,98732.58
2023-03-15T11:03:06.981Z,98729.69
2023-03-15T11:06:41.751Z,98721.48
2023-03-15T11:10:08.081Z,98725.45
2023-03-15T11:13:36.990Z,98727.66
2023-03-15T11:17:03.487Z,98729.80
2023-03-15T11:20:41.046Z,98727.83
2023-03-15T11:24:08.659Z,98728.20
2023-03-15T11:27:34.007Z,98736.76
2023-03-15T11:31:00.982Z,98732.56
2023-03-15T11:34:46.038Z,98734.20
2023-03-15T11:38:19.950Z,98732.59
2023-03-15T11:41:51.357Z,98741.31
2023-03-15T11:45:40.415Z,98741.08
2023-03-15T11:49:41.726Z,98746.99
2023-03-15T11:53:07.516Z,98757.36
2023-03-15T11:56:50.101Z,98766.32
2023-03-15T12:00:27.037Z,98775.27
2023-03-15T12:03:51.578Z,98774.05
2023-03-15T12:07:24.053Z,98773.81
2023-03-15T12:10:50.060Z,98772.98
2023-03-15T12:14:29.412Z,98778.79
2023-03-15T12:17:56.992Z,98785.05
2023-03-15T12:21:24.750Z,98781.38
2023-03-15T12:24:49.400Z,98778.60
2023-03-15T12:28:24.621Z,98784.08
2023-03-15T12:32:05.557Z,98782.18
2023-03-15T12:35:39.810Z,98786.80
2023-03-15T12:39:16.061Z,98791.17
2023-03-15T12:42:40.138Z,98792.90
2023-03-15T12:46:06.328Z,98799.09
2023-03-15T12:49:30.460Z,98806.98
2023-03-15T12:52:54.695Z,98812.52
2023-03-15T12:56:32.754Z,98811.02
2023-03-15T13:00:16.889Z,98815.13
2023-03-15T13:03:42.010Z,98821.94
2023-03-15T13:07:24.709Z,98823.87
2023-03-15T13:11:07.313Z,98830.04
2023-03-15T13:14:34.435Z,98834.07
2023-03-15T13:18:04.661Z,98837.30
2023-03-15T13:21:55.674Z,98841.48
2023-03-15T13:25:35.615Z,98846.94
2023-03-15T13:29:17.798Z,98847.76
2023-03-15T13:32:44.572Z,98850.20
2023-03-15T13:36:16.153Z,98858.95
2023-03-15T13:39:40.074Z,98866.38
2023-03-15T13:43:03.990Z,98863.83
2023-03-15T13:46:31.764Z,98864.93
2023-03-15T13:49:57.770Z,98861.02
2023-03-15T13:53:39.491Z,98862.48
2023-03-15T13:57:15.341Z,98867.15
2023-03-15T14:00:39.438Z,98871.69
2023-03-15T14:04:11.441Z,98874.11
2023-03-15T14:07:41.827Z,98875.83
2023-03-15T14:11:19.949Z,98878.27
2023-03-15T14:14:51.980Z,98879.99
2023-03-15T14:18:24.903Z,98875.66
2023-03-15T14:22:05.067Z,98872.05
2023-03-15T14:25:29.358Z,98882.30
2023-03-15T14:29:02.240Z,98887.48
2023-03-15T14:32:50.421Z,98884.38
2023-03-15T14:36:56.306Z,98885.90
2023-03-15T14:40:54.344Z,98887.92
2023-03-15T14:44:52.335Z,98893.67
2023-03-15T14:48:50.267Z,98893.59
2023-03-15T14:52:49.304Z,98900.23
2023-03-15T14:56:48.301Z,98903.64
2023-03-15T15:00:47.489Z,98905.77
2023-03-15T15:04:50.343Z,98913.66
2023-03-15T15:08:49.409Z,98915.86
2023-03-15T15:12:50.765Z,98924.67
2023-03-15T15:16:54.546Z,98927.23
2023-03-15T15:20:52.251Z,98932.48
2023-03-15T15:24:51.420Z,98935.67
2023-03-15T15:28:50.224Z,98938.23
2023-03-15T15:32:48.407Z,98940.23
2023-03-15T15:36:55.324Z,98939.50
2023-03-15T15:40:54.284Z,98944.38
2023-03-15T15:44:52.455Z,98945.44
2023-03-15T15:48:50.228Z,98948.91
2023-03-15T15:52:48.187Z,98956.41
2023-03-15T15:56:54.220Z,98968.68
2023-03-15T16:00:52.188Z,98970.61
2023-03-15T16:04:50.231Z,98976.06
2023-03-15T16:08:53.169Z,98980.02
2023-03-15T16:12:51.198Z,98981.77
2023-03-15T16:16:49.134Z,98987.99
2023-03-15T16:20:47.225Z,98988.16
2023-03-15T16:24:51.485Z,98987.58
2023-03-15T16:28:49.233Z,98991.64
2023-03-15T16:32:47.313Z,98994.11
2023-03-15T16:36:48.924Z,98989.95
2023-03-15T16:40:50.120Z,98998.08
2023-03-15T16:44:48.250Z,98999.42
2023-03-15T16:48:46.185Z,99006.05
2023-03-15T16:52:44.171Z,99012.65
2023-03-15T16:56:47.257Z,99015.07
2023-03-15T17:00:45.239Z,99016.92
2023-03-15T17:04:43.104Z,99027.15
2023-03-15T17:08:41.203Z,99027.81
2023-03-15T17:12:43.137Z,99030.16
2023-03-15T17:16:41.203Z,99040.27
2023-03-15T17:20:41.220Z,99038.19
2023-03-15T17:24:39.848Z,99047.16
2023-03-15T17:28:39.219Z,99057.34
2023-03-15T17:32:37.424Z,99056.81
2023-03-15T17:36:38.359Z,99061.38
2023-03-15T17:40:42.164Z,99062.55
2023-03-15T17:44:40.146Z,99067.55
2023-03-15T17:48:38.289Z,99069.80
2023-03-15T17:52:35.991Z,99067.98
2023-03-15T17:56:37.739Z,99071.92
2023-03-15T18:00:35.299Z,99075.85
2023-03-15T18:04:35.272Z,99077.73
2023-03-15T18:08:35.329Z,99084.47
2023-03-15T18:12:34.611Z,99087.45
2023-03-15T18:16:32.264Z,99097.36
2023-03-15T18:20:31.281Z,99092.52
2023-03-15T18:24:31.627Z,99085.17
2023-03-15T18:28:29.274Z,99085.88
2023-03-15T18:32:27.041Z,99085.11
2023-03-15T18:36:26.028Z,99087.13
2023-03-15T18:40:26.030Z,99093.58
2023-03-15T18:44:25.155Z,99093.06
2023-03-15T18:48:34.269Z,99096.08
2023-03-15T18:52:38.036Z,99100.33
2023-03-15T18:56:40.953Z,99104.92
2023-03-15T19:00:44.995Z,99106.77
2023-03-15T19:04:43.088Z,99111.17
2023-03-15T19:08:41.021Z,99110.55
2023-03-15T19:12:38.901Z,99113.42
2023-03-15T19:16:38.060Z,99122.77
2023-03-15T19:20:37.091Z,99124.21
2023-03-15T19:24:36.084Z,99126.65
2023-03-15T19:28:34.964Z,99122.00
2023-03-15T19:32:32.916Z,99128.31
2023-03-15T19:36:31.950Z,99135.06
2023-03-15T19:40:31.262Z,99135.54
2023-03-15T19:44:28.978Z,99141.33
2023-03-15T19:48:27.007Z,99146.15
2023-03-15T19:52:24.819Z,99153.46
2023-03-15T19:56:23.999Z,99152.94
2023-03-15T20:00:23.209Z,99158.35
2023-03-15T20:04:21.269Z,99159.50
2023-03-15T20:08:20.831Z,99162.08
2023-03-15T20:12:22.911Z,99164.39
2023-03-15T20:16:20.917Z,99167.39
2023-03-15T20:20:21.162Z,99171.02
2023-03-15T20:24:18.857Z,99179.81
2023-03-15T20:28:16.945Z,99182.23
2023-03-15T20:32:14.792Z,99179.96
2023-03-15T20:36:13.870Z,99178.45
2023-03-15T20:40:17.261Z,99170.56
2023-03-15T20:44:14.918Z,99173.77
2023-03-15T20:48:12.886Z,99177.55
2023-03-15T20:52:11.894Z,99183.28
2023-03-15T20:56:09.759Z,99190.47
2023-03-15T21:00:08.972Z,99200.53
2023-03-15T21:04:06.845Z,99200.45
2023-03-15T21:08:04.924Z,99202.64
2023-03-15T21:12:03.759Z,99205.75
2023-03-15T21:16:02.231Z,99206.37
2023-03-15T21:20:01.836Z,99205.45
2023-03-15T21:24:00.832Z,99209.27
2023-03-15T21:28:01.153Z,99218.84
2023-03-15T21:31:58.927Z,99220.20
2023-03-15T21:35:57.996Z,99221.10
2023-03-15T21:39:55.796Z,99223.16
2023-03-15T21:43:56.691Z,99221.20
2023-03-15T21:47:54.730Z,99226.41
2023-03-15T21:51:52.754Z,99222.46
2023-03-15T21:55:52.704Z,99227.39
2023-03-15T21:59:50.652Z,99231.95
2023-03-15T22:03:50.679Z,99232.26
2023-03-15T22:07:49.274Z,99235.59
2023-03-15T22:11:49.804Z,99244.17
2023-03-15T22:15:47.652Z,99247.62
2023-03-15T22:19:46.717Z,99252.09
2023-03-15T22:23:46.632Z,99252.86
2023-03-15T22:27:44.703Z,99254.05
2023-03-15T22:31:44.645Z,99256.21
2023-03-15T22:35:42.719Z,99265.36
2023-03-15T22:39:40.627Z,99272.42
2023-03-15T22:43:38.729Z,99274.30
2023-03-15T22:47:36.607Z,99269.88
2023-03-15T22:51:34.657Z,99274.83
2023-03-15T22:55:33.638Z,99277.38
2023-03-15T22:59:35.680Z,99284.20
2023-03-15T23:03:33.670Z,99287.50
2023-03-15T23:07:31.647Z,99286.84
2023-03-15T23:11:29.564Z,99297.35
2023-03-15T23:15:27.640Z,99299.50
2023-03-15T23:19:25.553Z,99303.83
2023-03-15T23:23:23.743Z,99308.64
2023-03-15T23:27:21.561Z,99309.41
2023-03-15T23:31:20.640Z,99307.15
2023-03-15T23:35:21.568Z,99311.96
2023-03-15T23:39:19.632Z,99316.55
2023-03-15T23:43:17.553Z,99318.94
2023-03-15T23:47:15.609Z,99316.42
2023-03-15T23:51:13.587Z,99317.37
2023-03-15T23:55:11.656Z,99319.05
2023-03-15T23:59:09.563Z,99321.52
